Time;durP1;ratioP1;P1;durP2;ratioP2;P2;SDS_P1;SDS_P2;PMS_P1;PMS_P2;Temp;Humidity;BMP_temperature;BMP_pressure;BME280_temperature;BME280_humidity;BME280_pressure;Samples;Min_cycle;Max_cycle;Signal;HPM_P1;HPM_P2
2024/04/12 00:01:13;;;;;;;11.90;3.97;;;;;;;;;;4368951;32;317055;-81
2024/04/12 00:03:41;;;;;;;5.65;3.50;;;;;;;;;;4380663;32;318231;-81
2024/04/12 00:06:15;;;;;;;11.20;4.43;;;;;;;;;;4368491;32;341006;-81
2024/04/12 00:08:46;;;;;;;5.80;3.42;;;;;;;;;;4379058;32;318786;-81
2024/04/12 00:11:13;;;;;;;23.90;12.65;;;;;;;;;;4368958;32;317693;-81
2024/04/12 00:13:44;;;;;;;12.30;8.35;;;;;;;;;;4380939;32;335349;-81
2024/04/12 00:16:11;;;;;;;11.70;5.60;;;;;;;;;;4369628;32;318426;-81
2024/04/12 00:18:38;;;;;;;7.75;4.87;;;;;;;;;;4372760;32;318239;-81
2024/04/12 00:21:05;;;;;;;9.15;4.90;;;;;;;;;;4380203;32;317296;-80
2024/04/12 00:23:32;;;;;;;5.87;3.70;;;;;;;;;;4351750;32;417591;-80
2024/04/12 00:26:00;;;;;;;5.62;4.07;;;;;;;;;;4363490;32;348019;-83
2024/04/12 00:28:29;;;;;;;6.18;4.03;;;;;;;;;;4347011;32;315592;-82
2024/04/12 00:30:59;;;;;;;5.37;3.35;;;;;;;;;;4378652;32;316162;-80
2024/04/12 00:33:31;;;;;;;4.95;3.75;;;;;;;;;;4367457;32;317304;-82
2024/04/12 00:36:06;;;;;;;8.48;4.37;;;;;;;;;;4379533;32;317232;-82
2024/04/12 00:38:35;;;;;;;6.53;3.50;;;;;;;;;;4357956;32;416614;-83
2024/04/12 00:41:11;;;;;;;9.73;4.50;;;;;;;;;;4379208;32;316613;-80
2024/04/12 00:43:44;;;;;;;10.73;4.00;;;;;;;;;;4364109;32;417508;-80
2024/04/12 00:46:11;;;;;;;13.68;5.03;;;;;;;;;;4368179;32;385638;-80
2024/04/12 00:48:37;;;;;;;10.70;4.75;;;;;;;;;;4372559;32;318223;-80
2024/04/12 00:51:05;;;;;;;11.90;3.65;;;;;;;;;;4380072;32;318114;-80
2024/04/12 00:53:34;;;;;;;6.43;4.10;;;;;;;;;;4363785;32;417875;-80
2024/04/12 00:56:03;;;;;;;6.62;3.87;;;;;;;;;;4364406;32;316638;-81
2024/04/12 00:58:33;;;;;;;4.87;3.62;;;;;;;;;;4349056;32;317255;-81
2024/04/12 01:01:10;;;;;;;7.70;3.90;;;;;;;;;;4367081;32;316753;-81
2024/04/12 01:03:38;;;;;;;14.38;4.50;;;;;;;;;;4355115;32;416472;-81
2024/04/12 01:06:07;;;;;;;4.82;3.90;;;;;;;;;;4359552;32;318077;-81
2024/04/12 01:08:33;;;;;;;6.18;3.80;;;;;;;;;;4359342;32;317031;-81
2024/04/12 01:11:01;;;;;;;8.35;3.87;;;;;;;;;;4369106;32;316931;-81
2024/04/12 01:13:28;;;;;;;6.72;3.67;;;;;;;;;;4359307;32;317869;-81
2024/04/12 01:15:56;;;;;;;13.25;4.18;;;;;;;;;;4367960;32;316704;-81
2024/04/12 01:18:23;;;;;;;8.60;3.87;;;;;;;;;;4352047;32;318025;-81
2024/04/12 01:20:51;;;;;;;9.20;4.30;;;;;;;;;;4380560;32;317175;-80
2024/04/12 01:23:18;;;;;;;9.10;4.15;;;;;;;;;;4374003;32;317266;-81
2024/04/12 01:25:47;;;;;;;6.47;4.18;;;;;;;;;;4383474;32;318298;-81
2024/04/12 01:28:16;;;;;;;6.97;4.18;;;;;;;;;;4371893;32;317257;-81
2024/04/12 01:30:45;;;;;;;7.53;4.05;;;;;;;;;;4368071;32;337909;-82
2024/04/12 01:33:13;;;;;;;5.43;4.37;;;;;;;;;;4359085;32;317370;-81
2024/04/12 01:35:42;;;;;;;6.87;4.28;;;;;;;;;;4366881;32;317162;-82
2024/04/12 01:38:17;;;;;;;5.10;3.80;;;;;;;;;;4355501;32;321743;-81
2024/04/12 01:40:42;;;;;;;8.25;4.72;;;;;;;;;;4377668;32;317619;-82
2024/04/12 01:43:11;;;;;;;7.37;4.40;;;;;;;;;;4371601;32;391850;-80
2024/04/12 01:45:39;;;;;;;8.95;4.95;;;;;;;;;;4384142;32;317012;-82
2024/04/12 01:48:07;;;;;;;8.40;4.57;;;;;;;;;;4382938;32;316973;-82
2024/04/12 01:50:34;;;;;;;8.02;4.43;;;;;;;;;;4364221;32;416582;-82
2024/04/12 01:53:09;;;;;;;5.50;4.30;;;;;;;;;;4389971;32;317283;-81
2024/04/12 01:55:40;;;;;;;8.65;4.40;;;;;;;;;;4385014;32;413776;-79
2024/04/12 01:58:07;;;;;;;6.50;4.28;;;;;;;;;;4388110;32;315884;-81
2024/04/12 02:00:35;;;;;;;11.40;4.80;;;;;;;;;;4386919;32;316436;-80
2024/04/12 02:03:02;;;;;;;6.65;4.35;;;;;;;;;;4382817;32;344634;-80
2024/04/12 02:05:32;;;;;;;5.43;3.72;;;;;;;;;;4372610;32;317396;-82
2024/04/12 02:08:03;;;;;;;8.07;4.47;;;;;;;;;;4383742;32;316574;-82
2024/04/12 02:10:29;;;;;;;8.18;4.93;;;;;;;;;;4367098;32;316662;-82
2024/04/12 02:12:59;;;;;;;8.63;4.53;;;;;;;;;;4380923;32;316561;-81
2024/04/12 02:15:25;;;;;;;9.32;4.50;;;;;;;;;;4358431;32;317160;-82
2024/04/12 02:18:02;;;;;;;11.80;4.65;;;;;;;;;;4368390;32;317332;-81
2024/04/12 02:20:33;;;;;;;8.07;4.15;;;;;;;;;;4359340;32;318192;-80
2024/04/12 02:23:01;;;;;;;6.82;4.25;;;;;;;;;;4381591;32;316931;-81
2024/04/12 02:25:31;;;;;;;5.95;4.35;;;;;;;;;;4372211;32;317458;-80
2024/04/12 02:27:58;;;;;;;9.85;4.40;;;;;;;;;;4382375;32;318123;-81
2024/04/12 02:30:23;;;;;;;10.02;4.45;;;;;;;;;;4365302;32;316986;-81
2024/04/12 02:32:51;;;;;;;17.70;5.30;;;;;;;;;;4383218;32;318430;-81
2024/04/12 02:35:21;;;;;;;6.77;4.80;;;;;;;;;;4368099;32;354752;-80
2024/04/12 02:37:48;;;;;;;12.20;4.90;;;;;;;;;;4381964;32;316785;-80
2024/04/12 02:40:15;;;;;;;8.55;5.12;;;;;;;;;;4369496;32;318144;-81
2024/04/12 02:42:43;;;;;;;12.85;4.93;;;;;;;;;;4378716;32;317362;-81
2024/04/12 02:45:12;;;;;;;7.57;4.72;;;;;;;;;;4370974;32;317838;-81
2024/04/12 02:47:40;;;;;;;7.50;4.70;;;;;;;;;;4378840;32;321194;-81
2024/04/12 02:50:10;;;;;;;8.27;4.78;;;;;;;;;;4378460;32;316732;-81
2024/04/12 02:52:40;;;;;;;6.10;4.82;;;;;;;;;;4372505;32;317284;-80
2024/04/12 02:55:12;;;;;;;15.75;5.55;;;;;;;;;;4369604;32;317222;-81
2024/04/12 02:57:41;;;;;;;9.27;5.07;;;;;;;;;;4379666;32;317799;-83
2024/04/12 03:00:21;;;;;;;8.35;4.85;;;;;;;;;;4364421;32;321112;-81
2024/04/12 03:02:52;;;;;;;8.82;5.68;;;;;;;;;;4374314;32;316353;-80
2024/04/12 03:05:18;;;;;;;9.40;5.20;;;;;;;;;;4376282;32;317223;-81
2024/04/12 03:07:46;;;;;;;8.27;5.30;;;;;;;;;;4377391;32;317420;-81
2024/04/12 03:10:18;;;;;;;11.27;5.30;;;;;;;;;;4369237;32;318170;-81
2024/04/12 03:12:51;;;;;;;15.13;6.65;;;;;;;;;;4378143;32;318707;-81
2024/04/12 03:15:18;;;;;;;9.93;5.00;;;;;;;;;;4368734;32;318586;-81
2024/04/12 03:17:47;;;;;;;6.85;4.68;;;;;;;;;;4379169;32;317306;-82
2024/04/12 03:20:15;;;;;;;12.43;7.87;;;;;;;;;;4367152;32;317146;-82
2024/04/12 03:22:43;;;;;;;16.98;6.35;;;;;;;;;;4376836;32;318305;-81
2024/04/12 03:25:10;;;;;;;9.85;6.70;;;;;;;;;;4367856;32;338352;-81
2024/04/12 03:27:39;;;;;;;13.13;6.25;;;;;;;;;;4377821;32;322724;-81
2024/04/12 03:30:13;;;;;;;17.40;6.35;;;;;;;;;;4354869;32;318302;-81
2024/04/12 03:32:45;;;;;;;9.95;6.90;;;;;;;;;;4369386;32;355755;-81
2024/04/12 03:35:12;;;;;;;13.45;6.97;;;;;;;;;;4368279;32;317289;-81
2024/04/12 03:37:39;;;;;;;18.92;6.82;;;;;;;;;;4378075;32;317599;-81
2024/04/12 03:40:15;;;;;;;14.82;6.53;;;;;;;;;;4368749;32;317488;-81
2024/04/12 03:42:44;;;;;;;17.85;6.57;;;;;;;;;;4378875;32;318534;-82
2024/04/12 03:45:12;;;;;;;9.57;5.70;;;;;;;;;;4367664;32;318349;-81
2024/04/12 03:47:40;;;;;;;16.98;6.82;;;;;;;;;;4379355;32;317541;-82
2024/04/12 03:50:13;;;;;;;16.65;7.07;;;;;;;;;;4369991;32;318232;-82
2024/04/12 03:52:43;;;;;;;23.90;6.82;;;;;;;;;;4374682;32;317478;-82
2024/04/12 03:55:11;;;;;;;14.30;7.32;;;;;;;;;;4362575;32;318267;-81
2024/04/12 03:57:39;;;;;;;26.85;8.07;;;;;;;;;;4362709;32;318533;-82
2024/04/12 04:00:11;;;;;;;13.02;6.90;;;;;;;;;;4363999;32;318335;-81
2024/04/12 04:02:39;;;;;;;10.32;7.25;;;;;;;;;;4344449;32;417603;-83
2024/04/12 04:05:14;;;;;;;13.52;7.32;;;;;;;;;;4364924;32;318623;-83
2024/04/12 04:07:41;;;;;;;14.68;6.97;;;;;;;;;;4350539;32;417574;-82
2024/04/12 04:10:13;;;;;;;21.58;7.87;;;;;;;;;;4352819;32;318465;-81
2024/04/12 04:12:49;;;;;;;20.00;7.87;;;;;;;;;;4360193;32;317751;-81
2024/04/12 04:15:17;;;;;;;18.58;7.62;;;;;;;;;;4354740;32;318165;-81
2024/04/12 04:17:48;;;;;;;13.38;7.32;;;;;;;;;;4362653;32;318325;-81
2024/04/12 04:20:17;;;;;;;23.98;8.10;;;;;;;;;;4361731;32;318345;-81
2024/04/12 04:22:49;;;;;;;23.85;7.72;;;;;;;;;;4374686;32;318204;-81
2024/04/12 04:25:19;;;;;;;16.80;8.15;;;;;;;;;;4369173;32;318534;-81
2024/04/12 04:27:46;;;;;;;25.02;8.25;;;;;;;;;;4379192;32;318821;-81
2024/04/12 04:30:17;;;;;;;31.98;11.63;;;;;;;;;;4365855;32;326201;-80
2024/04/12 04:32:47;;;;;;;28.60;12.10;;;;;;;;;;4362891;32;318731;-81
2024/04/12 04:35:13;;;;;;;41.70;14.68;;;;;;;;;;4354581;32;319501;-81
2024/04/12 04:37:40;;;;;;;35.20;17.35;;;;;;;;;;4367496;32;318857;-83
2024/04/12 04:40:12;;;;;;;34.17;15.27;;;;;;;;;;4366524;32;319460;-82
2024/04/12 04:42:38;;;;;;;26.02;11.95;;;;;;;;;;4362651;32;318480;-82
2024/04/12 04:45:07;;;;;;;31.60;11.52;;;;;;;;;;4369066;32;319705;-82
2024/04/12 04:47:34;;;;;;;31.10;12.57;;;;;;;;;;4337108;32;419406;-81
2024/04/12 04:50:01;;;;;;;24.70;11.68;;;;;;;;;;4369481;32;319197;-82
2024/04/12 04:52:36;;;;;;;29.55;9.80;;;;;;;;;;4351275;32;318658;-82
2024/04/12 04:55:02;;;;;;;19.62;9.77;;;;;;;;;;4368849;32;318169;-83
2024/04/12 04:57:35;;;;;;;21.80;8.77;;;;;;;;;;4359070;32;317694;-82
2024/04/12 05:00:06;;;;;;;18.70;7.95;;;;;;;;;;4367774;32;318459;-81
2024/04/12 05:02:34;;;;;;;20.33;8.80;;;;;;;;;;4354989;32;416573;-81
2024/04/12 05:05:04;;;;;;;23.10;9.55;;;;;;;;;;4384012;32;317795;-83
2024/04/12 05:07:34;;;;;;;18.58;9.00;;;;;;;;;;4373456;32;332421;-82
2024/04/12 05:10:09;;;;;;;18.02;8.40;;;;;;;;;;4382749;32;318095;-83
2024/04/12 05:12:37;;;;;;;23.05;8.75;;;;;;;;;;4363514;32;417861;-81
2024/04/12 05:15:10;;;;;;;19.62;8.90;;;;;;;;;;4382277;32;318308;-81
2024/04/12 05:17:38;;;;;;;20.55;8.48;;;;;;;;;;4371127;32;418739;-82
2024/04/12 05:20:14;;;;;;;21.08;8.57;;;;;;;;;;4386828;32;318233;-82
2024/04/12 05:22:46;;;;;;;41.15;9.35;;;;;;;;;;4361986;32;417433;-82
2024/04/12 05:25:13;;;;;;;19.67;9.25;;;;;;;;;;4362824;32;327128;-81
2024/04/12 05:27:41;;;;;;;21.98;8.63;;;;;;;;;;4382491;32;317738;-81
2024/04/12 05:30:07;;;;;;;37.65;8.63;;;;;;;;;;4357603;32;324753;-82
2024/04/12 05:32:34;;;;;;;23.92;9.27;;;;;;;;;;4360976;32;317647;-81
2024/04/12 05:35:06;;;;;;;19.40;8.98;;;;;;;;;;4364907;32;355253;-81
2024/04/12 05:37:43;;;;;;;20.33;10.88;;;;;;;;;;4362371;32;417751;-81
2024/04/12 05:40:13;;;;;;;18.48;9.55;;;;;;;;;;4371061;32;318070;-81
2024/04/12 05:42:41;;;;;;;26.75;9.75;;;;;;;;;;4384862;32;316357;-80
2024/04/12 05:45:07;;;;;;;21.25;7.40;;;;;;;;;;4369024;32;318299;-82
2024/04/12 05:47:34;;;;;;;24.80;9.88;;;;;;;;;;4366579;32;318555;-81
2024/04/12 05:50:01;;;;;;;23.33;8.90;;;;;;;;;;4365587;32;318212;-83
2024/04/12 05:52:34;;;;;;;46.75;9.13;;;;;;;;;;4351091;32;318067;-82
2024/04/12 05:55:10;;;;;;;48.35;11.25;;;;;;;;;;4368836;32;318075;-82
2024/04/12 05:57:39;;;;;;;31.80;12.05;;;;;;;;;;4333149;32;419606;-82
2024/04/12 06:00:09;;;;;;;47.53;12.15;;;;;;;;;;4367177;32;319164;-83
2024/04/12 06:02:36;;;;;;;40.28;11.52;;;;;;;;;;4346728;32;419629;-81
2024/04/12 06:05:06;;;;;;;46.97;11.63;;;;;;;;;;4367083;32;318601;-81
2024/04/12 06:07:35;;;;;;;36.20;12.35;;;;;;;;;;4351883;32;417975;-82
2024/04/12 06:10:05;;;;;;;34.20;12.13;;;;;;;;;;4363133;32;328366;-81
2024/04/12 06:12:34;;;;;;;34.40;11.18;;;;;;;;;;4346320;32;418487;-82
2024/04/12 06:15:05;;;;;;;30.73;10.75;;;;;;;;;;4365602;32;319673;-80
2024/04/12 06:17:31;;;;;;;41.67;11.75;;;;;;;;;;4349561;32;417285;-79
2024/04/12 06:20:08;;;;;;;32.03;12.23;;;;;;;;;;4364892;32;347073;-78
2024/04/12 06:22:35;;;;;;;36.58;13.10;;;;;;;;;;4346368;32;418979;-78
2024/04/12 06:25:02;;;;;;;27.83;13.05;;;;;;;;;;4360333;32;322800;-80
2024/04/12 06:27:29;;;;;;;30.73;11.88;;;;;;;;;;4349486;32;319274;-80
2024/04/12 06:29:59;;;;;;;45.95;14.80;;;;;;;;;;4369384;32;358106;-80
2024/04/12 06:32:27;;;;;;;37.95;13.65;;;;;;;;;;4363210;32;319362;-81
2024/04/12 06:34:53;;;;;;;39.97;13.90;;;;;;;;;;4368684;32;320123;-79
2024/04/12 06:37:21;;;;;;;34.70;13.13;;;;;;;;;;4356890;32;319563;-79
2024/04/12 06:39:48;;;;;;;34.85;13.07;;;;;;;;;;4370050;32;319347;-80
2024/04/12 06:42:15;;;;;;;44.22;15.20;;;;;;;;;;4355552;32;319293;-81
2024/04/12 06:44:48;;;;;;;44.47;15.27;;;;;;;;;;4370090;32;319327;-79
2024/04/12 06:47:18;;;;;;;36.58;14.40;;;;;;;;;;4356328;32;319542;-79
2024/04/12 06:49:45;;;;;;;41.75;12.13;;;;;;;;;;4365584;32;319155;-79
2024/04/12 06:52:11;;;;;;;28.87;12.02;;;;;;;;;;4357912;32;319257;-78
2024/04/12 06:54:42;;;;;;;24.65;11.88;;;;;;;;;;4372560;32;319596;-79
2024/04/12 06:57:08;;;;;;;30.42;11.75;;;;;;;;;;4369166;32;319306;-79
2024/04/12 06:59:36;;;;;;;44.60;12.25;;;;;;;;;;4375550;32;356783;-78
2024/04/12 07:02:06;;;;;;;21.42;9.57;;;;;;;;;;4379685;32;319590;-78
2024/04/12 07:04:33;;;;;;;22.10;10.23;;;;;;;;;;4357233;32;419369;-78
2024/04/12 07:07:00;;;;;;;21.42;10.38;;;;;;;;;;4378796;32;341912;-78
2024/04/12 07:09:30;;;;;;;27.05;10.25;;;;;;;;;;4369262;32;319267;-79
2024/04/12 07:11:57;;;;;;;38.38;9.52;;;;;;;;;;4371546;32;318945;-78
2024/04/12 07:14:24;;;;;;;22.55;9.77;;;;;;;;;;4345378;32;319077;-80
2024/04/12 07:16:50;;;;;;;26.10;9.90;;;;;;;;;;4362769;32;318365;-80
2024/04/12 07:19:23;;;;;;;19.90;9.07;;;;;;;;;;4367948;32;318270;-79
2024/04/12 07:21:54;;;;;;;22.10;9.90;;;;;;;;;;4363069;32;318280;-79
2024/04/12 07:24:22;;;;;;;29.92;9.57;;;;;;;;;;4347804;32;318330;-79
2024/04/12 07:26:48;;;;;;;15.15;8.95;;;;;;;;;;4363060;32;318030;-79
2024/04/12 07:29:15;;;;;;;24.27;9.15;;;;;;;;;;4353734;32;318302;-79
2024/04/12 07:31:42;;;;;;;14.77;7.20;;;;;;;;;;4367064;32;318115;-78
2024/04/12 07:34:10;;;;;;;17.10;6.80;;;;;;;;;;4350363;32;317598;-80
2024/04/12 07:36:39;;;;;;;15.60;6.00;;;;;;;;;;4356326;32;317540;-80
2024/04/12 07:39:08;;;;;;;12.55;5.62;;;;;;;;;;4353880;32;318415;-80
2024/04/12 07:41:37;;;;;;;15.43;6.47;;;;;;;;;;4363654;32;317811;-80
2024/04/12 07:44:04;;;;;;;18.37;8.23;;;;;;;;;;4363698;32;318006;-79
2024/04/12 07:46:33;;;;;;;18.90;6.87;;;;;;;;;;4346399;32;331779;-79
2024/04/12 07:49:00;;;;;;;20.30;6.57;;;;;;;;;;4363641;32;318871;-80
2024/04/12 07:51:31;;;;;;;25.85;6.35;;;;;;;;;;4352608;32;318194;-79
2024/04/12 07:54:03;;;;;;;10.90;6.25;;;;;;;;;;4363411;32;317627;-79
2024/04/12 07:56:37;;;;;;;10.82;5.78;;;;;;;;;;4348199;32;317386;-80
2024/04/12 07:59:13;;;;;;;15.13;5.37;;;;;;;;;;4364653;32;317479;-79
2024/04/12 08:01:39;;;;;;;7.50;4.47;;;;;;;;;;4351665;32;417331;-78
2024/04/12 08:04:15;;;;;;;13.35;5.93;;;;;;;;;;4347507;32;317279;-77
2024/04/12 08:06:55;;;;;;;8.40;4.65;;;;;;;;;;4344894;32;316477;-78
2024/04/12 08:09:25;;;;;;;12.40;4.70;;;;;;;;;;4343501;32;333668;-79
2024/04/12 08:11:58;;;;;;;11.52;4.80;;;;;;;;;;4359358;32;318242;-78
2024/04/12 08:14:26;;;;;;;20.90;5.40;;;;;;;;;;4346808;32;317958;-79
2024/04/12 08:16:54;;;;;;;13.50;5.30;;;;;;;;;;4365744;32;317584;-80
2024/04/12 08:19:38;;;;;;;12.43;4.85;;;;;;;;;;4348943;32;317337;-79
2024/04/12 08:22:06;;;;;;;8.38;4.35;;;;;;;;;;4346863;32;317441;-81
2024/04/12 08:24:36;;;;;;;6.03;4.72;;;;;;;;;;4330122;32;416599;-80
2024/04/12 08:27:02;;;;;;;11.55;5.12;;;;;;;;;;4350808;32;317130;-81
2024/04/12 08:29:29;;;;;;;13.30;5.62;;;;;;;;;;4340305;32;318433;-81
2024/04/12 08:31:59;;;;;;;7.90;4.72;;;;;;;;;;4350732;32;317755;-80
2024/04/12 08:34:28;;;;;;;9.60;4.87;;;;;;;;;;4333938;32;317134;-80
2024/04/12 08:36:55;;;;;;;10.93;4.65;;;;;;;;;;4349516;32;317232;-80
2024/04/12 08:39:30;;;;;;;18.02;7.57;;;;;;;;;;4340946;32;318125;-80
2024/04/12 08:42:04;;;;;;;12.35;5.70;;;;;;;;;;4350144;32;318064;-81
2024/04/12 08:44:35;;;;;;;12.52;5.57;;;;;;;;;;4335010;32;318278;-80
2024/04/12 08:47:16;;;;;;;22.02;6.80;;;;;;;;;;4350623;32;343005;-80
2024/04/12 08:49:46;;;;;;;31.12;11.45;;;;;;;;;;4339271;32;417403;-80
2024/04/12 08:52:24;;;;;;;9.80;5.43;;;;;;;;;;4340307;32;319456;-80
2024/04/12 08:54:54;;;;;;;13.38;4.93;;;;;;;;;;4350345;32;316581;-80
2024/04/12 08:57:22;;;;;;;12.37;4.60;;;;;;;;;;4338640;32;318108;-80
2024/04/12 08:59:49;;;;;;;16.75;4.70;;;;;;;;;;4349436;32;318080;-81
2024/04/12 09:02:21;;;;;;;8.95;5.43;;;;;;;;;;4338886;32;317776;-80
2024/04/12 09:04:52;;;;;;;6.30;4.80;;;;;;;;;;4350160;32;317737;-81
2024/04/12 09:07:20;;;;;;;7.55;5.20;;;;;;;;;;4341618;32;316330;-80
2024/04/12 09:09:52;;;;;;;6.95;4.45;;;;;;;;;;4348785;32;316253;-81
2024/04/12 09:12:18;;;;;;;6.50;4.53;;;;;;;;;;4334664;32;316319;-81
2024/04/12 09:14:46;;;;;;;11.80;5.10;;;;;;;;;;4361759;32;316246;-80
2024/04/12 09:17:14;;;;;;;11.27;4.30;;;;;;;;;;4349384;32;318117;-80
2024/04/12 09:19:41;;;;;;;11.88;5.20;;;;;;;;;;4362357;32;316782;-80
2024/04/12 09:22:09;;;;;;;7.50;4.72;;;;;;;;;;4343162;32;318067;-81
2024/04/12 09:24:39;;;;;;;8.88;5.03;;;;;;;;;;4346794;32;317285;-80
2024/04/12 09:27:09;;;;;;;8.85;4.62;;;;;;;;;;4351645;32;316793;-81
2024/04/12 09:29:43;;;;;;;8.82;4.53;;;;;;;;;;4352545;32;322302;-81
2024/04/12 09:34:58;;;;;;;9.57;4.72;;;;;;;;;;4353562;32;318270;-80
2024/04/12 09:37:38;;;;;;;6.50;4.03;;;;;;;;;;4343627;32;317342;-80
2024/04/12 09:40:16;;;;;;;10.38;4.12;;;;;;;;;;4351935;32;317264;-80
2024/04/12 09:42:45;;;;;;;10.32;4.32;;;;;;;;;;4339888;32;419889;-80
2024/04/12 09:45:16;;;;;;;19.65;5.93;;;;;;;;;;4344071;32;318173;-80
2024/04/12 10:37:46;;;;;;;10.15;5.32;;;;;;;;;;4339095;32;388048;-81
2024/04/12 10:40:16;;;;;;;12.52;4.32;;;;;;;;;;4341857;32;318527;-81
2024/04/12 10:42:46;;;;;;;10.85;5.05;;;;;;;;;;4352860;32;317630;-80
2024/04/12 10:45:15;;;;;;;15.02;4.30;;;;;;;;;;4340102;32;319160;-80
2024/04/12 10:47:44;;;;;;;10.27;4.18;;;;;;;;;;4353658;32;317461;-79
2024/04/12 10:50:13;;;;;;;6.43;3.75;;;;;;;;;;4342723;32;318036;-80
2024/04/12 10:52:39;;;;;;;6.70;4.10;;;;;;;;;;4347298;32;316511;-82
2024/04/12 10:55:09;;;;;;;7.82;4.12;;;;;;;;;;4352077;32;316314;-80
2024/04/12 10:57:42;;;;;;;9.00;3.85;;;;;;;;;;4340184;32;417786;-80
2024/04/12 11:00:14;;;;;;;15.25;4.70;;;;;;;;;;4341094;32;317279;-79
2024/04/12 11:02:41;;;;;;;9.68;4.90;;;;;;;;;;4350569;32;318074;-79
2024/04/12 11:05:38;;;;;;;5.72;3.60;;;;;;;;;;4338371;32;317287;-77
2024/04/12 11:08:12;;;;;;;5.80;3.78;;;;;;;;;;4337195;32;317236;-79
2024/04/12 11:10:54;;;;;;;8.20;3.92;;;;;;;;;;4340253;32;317276;-78
2024/04/12 11:13:28;;;;;;;6.00;3.30;;;;;;;;;;4339289;32;317074;-78
2024/04/12 11:32:55;;;;;;;5.18;3.72;;;;;;;;;;4303202;32;387497;-80
2024/04/12 11:35:28;;;;;;;8.55;3.50;;;;;;;;;;4339914;32;317002;-80
2024/04/12 11:37:56;;;;;;;8.88;3.83;;;;;;;;;;4348690;32;317159;-79
2024/04/12 11:40:24;;;;;;;6.10;3.15;;;;;;;;;;4330917;32;318162;-79
2024/04/12 11:42:56;;;;;;;6.03;3.83;;;;;;;;;;4350156;32;317125;-80
2024/04/12 11:45:25;;;;;;;6.80;3.67;;;;;;;;;;4341541;32;316514;-79
2024/04/12 11:47:52;;;;;;;5.40;3.55;;;;;;;;;;4350166;32;316390;-79
2024/04/12 11:50:17;;;;;;;10.27;3.70;;;;;;;;;;4334368;32;316898;-79
2024/04/12 11:52:54;;;;;;;13.52;4.00;;;;;;;;;;4352076;32;318115;-80
2024/04/12 11:55:21;;;;;;;15.23;3.55;;;;;;;;;;4342699;32;318133;-79
2024/04/12 11:57:51;;;;;;;7.57;4.57;;;;;;;;;;4354534;32;318154;-80
2024/04/12 12:00:20;;;;;;;4.90;3.97;;;;;;;;;;4323838;32;327420;-80
2024/04/12 12:02:47;;;;;;;8.02;3.47;;;;;;;;;;4340068;32;317072;-80
2024/04/12 12:05:16;;;;;;;8.10;3.17;;;;;;;;;;4328625;32;316798;-80
2024/04/12 12:07:45;;;;;;;9.48;3.58;;;;;;;;;;4336946;32;317158;-80
2024/04/12 12:10:10;;;;;;;17.48;3.62;;;;;;;;;;4327980;32;317293;-81
2024/04/12 12:12:41;;;;;;;12.90;3.28;;;;;;;;;;4330962;32;318312;-79
2024/04/12 12:15:08;;;;;;;8.65;3.45;;;;;;;;;;4332695;32;317993;-78
2024/04/12 12:17:37;;;;;;;6.93;3.33;;;;;;;;;;4347725;32;316559;-78
2024/04/12 12:20:04;;;;;;;7.07;3.45;;;;;;;;;;4347722;32;317137;-78
2024/04/12 12:22:33;;;;;;;10.02;3.45;;;;;;;;;;4330964;32;317315;-79
2024/04/12 12:24:58;;;;;;;8.68;4.50;;;;;;;;;;4346755;32;318232;-80
2024/04/12 12:27:28;;;;;;;9.52;3.75;;;;;;;;;;4337279;32;316996;-79
2024/04/12 12:29:53;;;;;;;12.90;3.80;;;;;;;;;;4347061;32;317130;-79
2024/04/12 12:32:25;;;;;;;12.93;3.60;;;;;;;;;;4330986;32;318412;-79
2024/04/12 12:34:53;;;;;;;7.55;4.30;;;;;;;;;;4347753;32;316570;-78
2024/04/12 12:37:19;;;;;;;7.37;3.95;;;;;;;;;;4338343;32;316590;-79
2024/04/12 12:39:47;;;;;;;7.05;4.12;;;;;;;;;;4346202;32;316425;-79
2024/04/12 12:42:16;;;;;;;12.50;3.57;;;;;;;;;;4335816;32;351582;-79
2024/04/12 12:44:43;;;;;;;17.23;5.68;;;;;;;;;;4348251;32;317964;-79
2024/04/12 12:47:12;;;;;;;8.93;2.87;;;;;;;;;;4338441;32;318246;-79
2024/04/12 12:49:40;;;;;;;10.27;3.60;;;;;;;;;;4347019;32;345373;-79
2024/04/12 12:52:11;;;;;;;10.80;3.67;;;;;;;;;;4338216;32;318050;-79
2024/04/12 12:54:37;;;;;;;8.15;3.58;;;;;;;;;;4339894;32;317800;-79
2024/04/12 12:57:06;;;;;;;6.05;3.22;;;;;;;;;;4350552;32;317207;-79
2024/04/12 12:59:37;;;;;;;10.30;3.80;;;;;;;;;;4337019;32;418153;-79
2024/04/12 13:02:04;;;;;;;11.82;3.83;;;;;;;;;;4350365;32;317496;-78
2024/04/12 13:04:33;;;;;;;9.48;4.30;;;;;;;;;;4333849;32;318314;-78
2024/04/12 13:07:06;;;;;;;13.75;3.92;;;;;;;;;;4350211;32;317155;-78
2024/04/12 13:09:35;;;;;;;17.98;4.60;;;;;;;;;;4335371;32;417634;-78
2024/04/12 13:12:04;;;;;;;6.57;3.53;;;;;;;;;;4350509;32;318734;-78
2024/04/12 13:14:30;;;;;;;9.35;3.85;;;;;;;;;;4334295;32;317060;-78
2024/04/12 13:16:57;;;;;;;14.07;4.65;;;;;;;;;;4350167;32;316390;-78
2024/04/12 13:19:22;;;;;;;14.32;3.70;;;;;;;;;;4335261;32;318146;-79
2024/04/12 13:21:52;;;;;;;5.97;2.80;;;;;;;;;;4336077;32;317719;-79
2024/04/12 13:24:18;;;;;;;7.53;3.60;;;;;;;;;;4331600;32;317712;-79
2024/04/12 13:26:50;;;;;;;6.65;3.20;;;;;;;;;;4346508;32;328793;-79
2024/04/12 13:29:16;;;;;;;11.20;3.97;;;;;;;;;;4335062;32;317291;-78
2024/04/12 13:31:50;;;;;;;11.82;3.15;;;;;;;;;;4350203;32;318428;-78
2024/04/12 13:34:17;;;;;;;12.00;4.93;;;;;;;;;;4332671;32;318389;-78
2024/04/12 13:36:47;;;;;;;9.45;4.03;;;;;;;;;;4348495;32;318067;-79
2024/04/12 13:39:13;;;;;;;8.15;3.65;;;;;;;;;;4341066;32;317320;-79
2024/04/12 13:41:43;;;;;;;11.63;3.62;;;;;;;;;;4350176;32;317338;-79
2024/04/12 13:44:10;;;;;;;7.18;3.58;;;;;;;;;;4339059;32;318220;-78
2024/04/12 13:52:09;;;;;;;8.77;3.72;;;;;;;;;;4338764;32;317172;-79
2024/04/12 13:54:37;;;;;;;11.20;3.20;;;;;;;;;;4342089;32;317739;-78
2024/04/12 13:57:04;;;;;;;8.55;3.05;;;;;;;;;;4349874;32;317846;-78
2024/04/12 13:59:38;;;;;;;8.32;3.25;;;;;;;;;;4337568;32;365390;-79
2024/04/12 14:02:04;;;;;;;8.75;3.45;;;;;;;;;;4349249;32;317588;-79
2024/04/12 14:04:38;;;;;;;14.57;2.67;;;;;;;;;;4330438;32;414843;-79
2024/04/12 14:07:06;;;;;;;17.08;3.65;;;;;;;;;;4349489;32;318085;-78
2024/04/12 14:09:32;;;;;;;10.98;3.08;;;;;;;;;;4334885;32;415660;-78
2024/04/12 14:12:00;;;;;;;7.68;3.65;;;;;;;;;;4326769;32;321674;-78
2024/04/12 14:14:25;;;;;;;15.27;3.25;;;;;;;;;;4347117;32;317232;-78
2024/04/12 14:16:55;;;;;;;8.82;3.47;;;;;;;;;;4339013;32;319059;-78
2024/04/12 14:19:20;;;;;;;14.10;3.55;;;;;;;;;;4345820;32;317251;-78
2024/04/12 14:21:49;;;;;;;10.60;3.37;;;;;;;;;;4336027;32;317688;-78
2024/04/12 14:26:57;;;;;;;15.80;3.80;;;;;;;;;;4340164;32;317254;-78
2024/04/12 14:29:26;;;;;;;8.07;4.35;;;;;;;;;;4348503;32;318054;-78
2024/04/12 14:31:55;;;;;;;15.60;3.92;;;;;;;;;;4336329;32;317193;-78
2024/04/12 14:34:22;;;;;;;7.68;2.87;;;;;;;;;;4340091;32;318121;-77
2024/04/12 14:36:47;;;;;;;7.97;3.20;;;;;;;;;;4348695;32;317193;-77
2024/04/12 14:39:15;;;;;;;8.65;3.28;;;;;;;;;;4338785;32;317344;-78
2024/04/12 14:41:41;;;;;;;5.32;3.08;;;;;;;;;;4348730;32;344983;-77
2024/04/12 14:44:08;;;;;;;11.90;4.17;;;;;;;;;;4331881;32;328497;-77
2024/04/12 14:46:35;;;;;;;6.45;3.40;;;;;;;;;;4349460;32;318057;-79
2024/04/12 14:49:03;;;;;;;5.82;3.60;;;;;;;;;;4339082;32;317273;-78
2024/04/12 14:51:29;;;;;;;10.48;3.42;;;;;;;;;;4349128;32;317294;-79
2024/04/12 14:53:56;;;;;;;5.28;2.83;;;;;;;;;;4338802;32;347212;-78
2024/04/12 14:56:23;;;;;;;9.07;3.62;;;;;;;;;;4341733;32;317012;-78
2024/04/12 14:58:56;;;;;;;5.87;3.33;;;;;;;;;;4347537;32;317239;-78
2024/04/12 15:01:24;;;;;;;12.45;3.55;;;;;;;;;;4335041;32;417574;-78
2024/04/12 15:50:32;;;;;;;10.60;5.18;;;;;;;;;;4329488;32;389456;-77
2024/04/12 15:53:18;;;;;;;9.07;5.15;;;;;;;;;;4339290;32;318206;-77
2024/04/12 16:12:27;;;;;;;14.98;6.45;;;;;;;;;;4306083;32;389299;-77
2024/04/12 16:14:54;;;;;;;9.18;5.97;;;;;;;;;;4338023;32;318210;-76
2024/04/12 16:17:22;;;;;;;10.07;5.35;;;;;;;;;;4346599;32;317846;-76
2024/04/12 16:19:49;;;;;;;11.90;6.10;;;;;;;;;;4348106;32;318309;-76
2024/04/12 16:22:17;;;;;;;17.17;7.62;;;;;;;;;;4329901;32;318091;-77
2024/04/12 16:24:44;;;;;;;8.30;4.90;;;;;;;;;;4349214;32;330239;-76
2024/04/12 16:27:11;;;;;;;11.65;5.93;;;;;;;;;;4335966;32;317194;-76
2024/04/12 16:29:40;;;;;;;20.23;5.40;;;;;;;;;;4354255;32;318283;-76
2024/04/12 16:32:06;;;;;;;16.75;7.65;;;;;;;;;;4334966;32;318093;-76
2024/04/12 16:34:33;;;;;;;33.63;8.88;;;;;;;;;;4341898;32;318345;-76
2024/04/12 16:36:59;;;;;;;10.65;4.82;;;;;;;;;;4323724;32;318144;-76
2024/04/12 16:39:27;;;;;;;9.98;4.75;;;;;;;;;;4340992;32;317840;-77
2024/04/12 16:41:55;;;;;;;12.18;4.30;;;;;;;;;;4338185;32;317154;-76
2024/04/12 16:44:22;;;;;;;13.27;5.37;;;;;;;;;;4339971;32;318223;-78
2024/04/12 16:46:49;;;;;;;9.82;4.43;;;;;;;;;;4345738;32;336014;-78
2024/04/12 16:49:16;;;;;;;7.62;3.80;;;;;;;;;;4332862;32;382610;-78
2024/04/12 16:51:42;;;;;;;11.45;4.15;;;;;;;;;;4346680;32;317076;-78
2024/04/12 16:54:09;;;;;;;9.77;4.78;;;;;;;;;;4329756;32;318226;-77